Aviation Digital Data Service (ADDS)

Output produced by METARs form (2128 UTC 24 May 2017)
found at http://aviationweather.gov/adds/metars/
 
KHLG 241910Z 2419/2518 12010G18KT P6SM BKN050 
     FM242300 11012G18KT 6SM -RA BKN035 
     FM250600 11008KT P6SM -SHRA OVC012 
     FM251200 17008KT P6SM -SHRA OVC020 
     FM251700 22008KT P6SM BKN050